createdAt,value
2023-06-21T00:00:46.477Z,17.82
2023-06-21T00:03:13.811Z,17.81
2023-06-21T00:05:40.840Z,17.81
2023-06-21T00:08:07.852Z,17.81
2023-06-21T00:10:35.025Z,17.81
2023-06-21T00:13:02.149Z,17.83
2023-06-21T00:15:29.040Z,17.83
2023-06-21T00:17:55.841Z,17.84
2023-06-21T00:20:23.048Z,17.84
2023-06-21T00:22:56.789Z,17.84
2023-06-21T00:25:25.101Z,17.85
2023-06-21T00:27:51.833Z,17.86
2023-06-21T00:30:18.685Z,17.86
2023-06-21T00:32:45.344Z,17.85
2023-06-21T00:35:14.395Z,17.83
2023-06-21T00:37:41.003Z,17.81
2023-06-21T00:40:15.272Z,17.79
2023-06-21T00:42:41.862Z,17.77
2023-06-21T00:45:16.291Z,17.76
2023-06-21T00:47:43.187Z,17.74
2023-06-21T00:50:10.922Z,17.72
2023-06-21T00:52:39.413Z,17.71
2023-06-21T00:55:06.907Z,17.69
2023-06-21T00:57:34.688Z,17.67
2023-06-21T01:00:01.704Z,17.66
2023-06-21T01:02:28.309Z,17.64
2023-06-21T01:04:57.654Z,17.60
2023-06-21T01:07:46.313Z,17.56
2023-06-21T01:10:45.793Z,17.53
2023-06-21T01:13:37.835Z,17.50
2023-06-21T01:16:13.517Z,17.46
2023-06-21T01:18:42.120Z,17.43
2023-06-21T01:21:11.512Z,17.39
2023-06-21T01:24:10.681Z,17.35
2023-06-21T01:27:02.435Z,17.31
2023-06-21T01:29:32.403Z,17.28
2023-06-21T01:32:00.732Z,17.25
2023-06-21T01:34:29.155Z,17.20
2023-06-21T01:36:57.707Z,17.16
2023-06-21T01:39:30.050Z,17.15
2023-06-21T01:41:58.390Z,17.13
2023-06-21T01:44:25.799Z,17.11
2023-06-21T01:46:55.104Z,17.08
2023-06-21T01:49:21.763Z,17.05
2023-06-21T01:51:50.460Z,17.03
2023-06-21T01:54:17.741Z,17.01
2023-06-21T01:56:48.169Z,16.99
2023-06-21T01:59:15.414Z,16.97
2023-06-21T02:01:44.179Z,16.96
2023-06-21T02:04:12.123Z,16.96
2023-06-21T02:06:40.407Z,16.96
2023-06-21T02:09:10.631Z,16.96
2023-06-21T02:11:39.692Z,16.96
2023-06-21T02:14:06.957Z,16.93
2023-06-21T02:16:55.667Z,16.88
2023-06-21T02:19:24.078Z,16.85
2023-06-21T02:21:50.642Z,16.82
2023-06-21T02:24:17.957Z,16.79
2023-06-21T02:26:44.534Z,16.77
2023-06-21T02:29:12.788Z,16.75
2023-06-21T02:31:39.393Z,16.72
2023-06-21T02:34:06.003Z,16.71
2023-06-21T02:36:33.146Z,16.70
2023-06-21T02:38:59.682Z,16.69
2023-06-21T02:41:26.560Z,16.70
2023-06-21T02:43:53.891Z,16.70
2023-06-21T02:46:21.969Z,16.70
2023-06-21T02:48:48.728Z,16.71
2023-06-21T02:51:16.855Z,16.73
2023-06-21T02:53:43.405Z,16.75
2023-06-21T02:56:09.940Z,16.77
2023-06-21T02:58:36.451Z,16.79
2023-06-21T03:01:04.595Z,16.83
2023-06-21T03:03:31.301Z,16.85
2023-06-21T03:05:59.245Z,16.89
2023-06-21T03:08:27.307Z,16.94
2023-06-21T03:10:54.263Z,16.99
2023-06-21T03:13:21.108Z,17.04
2023-06-21T03:15:49.282Z,17.10
2023-06-21T03:18:17.115Z,17.15
2023-06-21T03:20:44.297Z,17.20
2023-06-21T03:23:10.876Z,17.26
2023-06-21T03:25:37.501Z,17.33
2023-06-21T03:28:04.125Z,17.40
2023-06-21T03:30:31.128Z,17.49
2023-06-21T03:32:58.355Z,17.59
2023-06-21T03:35:25.911Z,17.70
2023-06-21T03:37:52.660Z,17.83
2023-06-21T03:40:22.665Z,17.95
2023-06-21T03:42:49.288Z,18.04
2023-06-21T03:45:16.207Z,18.15
2023-06-21T03:47:45.863Z,18.24
2023-06-21T03:50:13.220Z,18.32
2023-06-21T03:52:41.373Z,18.42
2023-06-21T03:55:09.159Z,18.53
2023-06-21T03:57:37.250Z,18.64
2023-06-21T04:00:14.765Z,18.76
2023-06-21T04:02:48.111Z,18.88
2023-06-21T04:05:14.969Z,19.00
2023-06-21T04:07:41.798Z,19.12
2023-06-21T04:10:14.324Z,19.23
2023-06-21T04:12:41.388Z,19.34
2023-06-21T04:15:08.834Z,19.42
2023-06-21T04:17:37.573Z,19.49
2023-06-21T04:20:12.108Z,19.54
2023-06-21T04:22:43.397Z,19.58
2023-06-21T04:25:10.672Z,19.63
2023-06-21T04:27:37.845Z,19.67
2023-06-21T04:30:04.927Z,19.73
2023-06-21T04:32:33.526Z,19.81
2023-06-21T04:35:01.105Z,19.88
2023-06-21T04:37:31.893Z,19.96
2023-06-21T04:40:12.251Z,20.02
2023-06-21T04:42:39.392Z,20.09
2023-06-21T04:45:06.924Z,20.16
2023-06-21T04:47:33.551Z,20.26
2023-06-21T04:50:15.076Z,20.35
2023-06-21T04:52:49.125Z,20.49
2023-06-21T04:55:19.682Z,20.64
2023-06-21T04:57:49.960Z,20.81
2023-06-21T05:00:18.517Z,20.95
2023-06-21T05:02:46.354Z,21.13
2023-06-21T05:05:13.010Z,21.33
2023-06-21T05:07:40.281Z,21.52
2023-06-21T05:10:11.586Z,21.77
2023-06-21T05:12:38.634Z,22.00
2023-06-21T05:15:07.123Z,22.23
2023-06-21T05:17:35.425Z,22.47
2023-06-21T05:20:06.422Z,22.68
2023-06-21T05:22:33.232Z,22.84
2023-06-21T05:25:03.070Z,23.05
2023-06-21T05:27:30.026Z,23.28
2023-06-21T05:29:56.631Z,23.49
2023-06-21T05:32:25.702Z,23.56
2023-06-21T05:34:55.490Z,23.70
2023-06-21T05:37:23.164Z,23.86
2023-06-21T05:39:50.326Z,24.02
2023-06-21T05:42:16.996Z,24.21
2023-06-21T05:44:43.531Z,24.36
2023-06-21T05:47:10.143Z,24.50
2023-06-21T05:49:36.701Z,24.63
2023-06-21T05:52:03.567Z,24.66
2023-06-21T05:54:30.137Z,24.75
2023-06-21T05:56:57.147Z,24.78
2023-06-21T05:59:23.743Z,24.71
2023-06-21T06:01:50.381Z,24.70
2023-06-21T06:04:17.193Z,24.71
2023-06-21T06:06:43.963Z,24.74
2023-06-21T06:09:11.756Z,24.90
2023-06-21T06:11:39.192Z,25.10
2023-06-21T06:14:06.084Z,25.31
2023-06-21T06:16:32.877Z,25.49
2023-06-21T06:18:59.489Z,25.64
2023-06-21T06:21:26.155Z,25.77
2023-06-21T06:23:54.119Z,25.78
2023-06-21T06:26:26.021Z,25.68
2023-06-21T06:28:53.588Z,25.56
2023-06-21T06:31:25.437Z,25.52
2023-06-21T06:33:52.103Z,25.57
2023-06-21T06:36:19.174Z,25.63
2023-06-21T06:38:52.388Z,25.72
2023-06-21T06:41:20.428Z,25.83
2023-06-21T06:43:47.167Z,25.91
2023-06-21T06:46:13.803Z,25.97
2023-06-21T06:48:40.413Z,26.03
2023-06-21T06:51:07.243Z,26.12
2023-06-21T06:53:33.904Z,26.15
2023-06-21T06:56:03.897Z,26.18
2023-06-21T06:58:30.607Z,26.28
2023-06-21T07:00:57.758Z,26.41
2023-06-21T07:03:24.556Z,26.49
2023-06-21T07:05:51.467Z,26.58
2023-06-21T07:08:18.743Z,26.63
2023-06-21T07:10:46.939Z,26.71
2023-06-21T07:13:13.914Z,26.87
2023-06-21T07:15:40.570Z,27.06
2023-06-21T07:18:07.349Z,27.22
2023-06-21T07:20:34.834Z,27.39
2023-06-21T07:23:01.828Z,27.67
2023-06-21T07:25:28.429Z,28.19
2023-06-21T07:27:55.268Z,28.94
2023-06-21T07:30:23.969Z,29.54
2023-06-21T07:32:51.552Z,29.66
2023-06-21T07:35:18.629Z,29.60
2023-06-21T07:37:46.423Z,29.53
2023-06-21T07:40:14.241Z,29.57
2023-06-21T07:42:41.543Z,29.98
2023-06-21T07:45:10.076Z,30.67
2023-06-21T07:47:37.645Z,31.46
2023-06-21T07:52:35.854Z,32.26
2023-06-21T07:55:03.958Z,32.41
2023-06-21T07:57:30.625Z,33.00
2023-06-21T08:00:00.008Z,33.23
2023-06-21T08:02:26.757Z,33.50
2023-06-21T08:04:53.450Z,34.14
2023-06-21T08:07:21.926Z,34.50
2023-06-21T08:09:50.646Z,34.51
2023-06-21T08:12:17.402Z,34.54
2023-06-21T08:14:44.113Z,34.59
2023-06-21T08:17:10.934Z,34.49
2023-06-21T08:19:37.772Z,34.53
2023-06-21T08:22:04.782Z,34.59
2023-06-21T08:24:34.587Z,34.74
2023-06-21T08:27:01.436Z,35.00
2023-06-21T08:29:28.171Z,35.36
2023-06-21T08:31:54.919Z,35.32
2023-06-21T08:34:21.778Z,35.34
2023-06-21T08:36:48.370Z,35.51
2023-06-21T08:39:15.514Z,35.55
2023-06-21T08:41:42.595Z,35.89
2023-06-21T08:44:09.239Z,36.33
2023-06-21T08:46:37.036Z,36.71
2023-06-21T08:49:06.957Z,36.74
2023-06-21T08:51:37.786Z,36.73
2023-06-21T08:54:08.703Z,37.10
2023-06-21T08:56:47.899Z,37.45
2023-06-21T08:59:23.240Z,37.17
2023-06-21T09:02:09.908Z,37.07
2023-06-21T09:04:46.323Z,37.39
2023-06-21T09:07:15.003Z,37.60
2023-06-21T09:09:44.868Z,37.92
2023-06-21T09:12:15.053Z,37.93
2023-06-21T09:14:42.281Z,38.21
2023-06-21T09:17:09.548Z,38.31
2023-06-21T09:19:41.051Z,38.34
2023-06-21T09:22:08.053Z,38.29
2023-06-21T09:24:34.996Z,37.65
2023-06-21T09:27:02.789Z,36.75
2023-06-21T09:29:29.724Z,36.08
2023-06-21T09:31:57.559Z,35.55
2023-06-21T09:34:24.580Z,35.11
2023-06-21T09:36:51.734Z,35.31
2023-06-21T09:39:18.405Z,35.22
2023-06-21T09:41:47.873Z,35.10
2023-06-21T09:44:14.556Z,35.33
2023-06-21T09:46:41.759Z,35.67
2023-06-21T09:49:09.883Z,35.37
2023-06-21T09:51:44.274Z,34.99
2023-06-21T09:54:11.110Z,34.63
2023-06-21T09:56:38.771Z,34.47
2023-06-21T09:59:14.913Z,33.92
2023-06-21T10:01:46.407Z,33.44
2023-06-21T10:04:15.306Z,33.18
2023-06-21T10:06:52.656Z,32.90
2023-06-21T10:09:19.898Z,32.77
2023-06-21T10:11:47.273Z,32.87
2023-06-21T10:14:22.289Z,33.11
2023-06-21T10:16:55.000Z,33.30
2023-06-21T10:19:26.031Z,33.51
2023-06-21T10:22:08.330Z,33.72
2023-06-21T10:24:49.484Z,34.14
2023-06-21T10:27:17.681Z,34.49
2023-06-21T10:29:46.375Z,34.53
2023-06-21T10:32:13.805Z,34.57
2023-06-21T10:35:10.191Z,34.75
2023-06-21T10:37:49.804Z,34.60
2023-06-21T10:40:17.829Z,34.02
2023-06-21T10:42:45.865Z,33.76
2023-06-21T10:45:13.766Z,33.47
2023-06-21T10:47:41.896Z,33.04
2023-06-21T10:50:09.884Z,32.67
2023-06-21T10:52:38.039Z,32.52
2023-06-21T10:55:05.261Z,32.22
2023-06-21T10:57:34.880Z,32.07
2023-06-21T11:00:04.684Z,32.06
2023-06-21T11:02:31.734Z,32.09
2023-06-21T11:05:14.374Z,32.03
2023-06-21T11:08:01.017Z,31.88
2023-06-21T11:10:39.999Z,31.64
2023-06-21T11:13:07.488Z,31.60
2023-06-21T11:15:34.930Z,31.54
2023-06-21T11:18:09.465Z,31.46
2023-06-21T11:20:48.215Z,31.41
2023-06-21T11:23:28.766Z,31.34
2023-06-21T11:26:14.934Z,31.19
2023-06-21T11:28:47.309Z,30.95
2023-06-21T11:31:19.068Z,30.89
2023-06-21T11:33:57.172Z,30.79
2023-06-21T11:36:28.393Z,30.74
2023-06-21T11:39:07.193Z,30.90
2023-06-21T11:41:44.102Z,31.09
2023-06-21T11:44:28.820Z,31.19
2023-06-21T11:47:15.268Z,31.25
2023-06-21T11:49:48.539Z,31.38
2023-06-21T11:52:15.374Z,31.43
2023-06-21T11:54:42.060Z,31.37
2023-06-21T11:57:09.153Z,31.24
2023-06-21T11:59:37.445Z,31.11
2023-06-21T12:02:14.888Z,31.00
2023-06-21T12:04:42.913Z,30.84
2023-06-21T12:09:42.065Z,30.58
2023-06-21T12:12:10.673Z,30.47
2023-06-21T12:14:37.828Z,30.34
2023-06-21T12:17:05.926Z,30.24
2023-06-21T12:19:33.864Z,30.18
2023-06-21T12:22:03.484Z,30.11
2023-06-21T12:24:31.817Z,30.00
2023-06-21T12:27:02.090Z,29.89
2023-06-21T12:29:28.997Z,29.80
2023-06-21T12:31:59.088Z,29.72
2023-06-21T12:34:26.564Z,29.55
2023-06-21T12:36:56.032Z,29.37
2023-06-21T12:39:24.279Z,29.18
2023-06-21T12:41:51.269Z,28.96
2023-06-21T12:44:21.166Z,28.63
2023-06-21T12:46:47.912Z,28.22
2023-06-21T12:49:15.849Z,27.84
2023-06-21T12:51:45.988Z,27.50
2023-06-21T12:54:14.028Z,27.25
2023-06-21T12:56:43.211Z,27.06
2023-06-21T12:59:10.251Z,26.92
2023-06-21T13:01:38.773Z,26.89
2023-06-21T13:04:10.860Z,26.88
2023-06-21T13:06:39.527Z,26.86
2023-06-21T13:09:07.284Z,26.85
2023-06-21T13:11:34.688Z,26.80
2023-06-21T13:14:03.364Z,26.79
2023-06-21T13:16:30.264Z,26.80
2023-06-21T13:18:56.955Z,26.76
2023-06-21T13:21:25.132Z,26.77
2023-06-21T13:23:52.676Z,26.74
2023-06-21T13:26:19.777Z,26.72
2023-06-21T13:28:46.455Z,26.65
2023-06-21T13:31:17.584Z,26.61
2023-06-21T13:33:45.244Z,26.51
2023-06-21T13:36:11.910Z,26.49
2023-06-21T13:38:39.692Z,26.35
2023-06-21T13:41:08.576Z,26.30
2023-06-21T13:43:35.394Z,26.38
2023-06-21T13:46:02.361Z,26.48
2023-06-21T13:48:30.321Z,26.60
2023-06-21T13:50:57.080Z,26.73
2023-06-21T13:53:23.775Z,26.79
2023-06-21T13:55:51.259Z,26.80
2023-06-21T13:58:18.262Z,26.86
2023-06-21T14:00:45.630Z,26.94
2023-06-21T14:03:15.810Z,26.99
2023-06-21T14:05:42.578Z,26.94
2023-06-21T14:08:09.326Z,26.90
2023-06-21T14:10:36.060Z,26.85
2023-06-21T14:13:02.619Z,26.80
2023-06-21T14:15:29.253Z,26.74
2023-06-21T14:17:56.332Z,26.67
2023-06-21T14:20:24.534Z,26.59
2023-06-21T14:22:51.627Z,26.51
2023-06-21T14:25:18.311Z,26.44
2023-06-21T14:27:45.017Z,26.37
2023-06-21T14:30:12.603Z,26.32
2023-06-21T14:32:39.357Z,26.30
2023-06-21T14:35:06.868Z,26.26
2023-06-21T14:37:33.534Z,26.25
2023-06-21T14:40:03.490Z,26.24
2023-06-21T14:42:30.471Z,26.24
2023-06-21T14:44:57.159Z,26.25
2023-06-21T14:47:23.950Z,26.23
2023-06-21T14:49:55.639Z,26.21
2023-06-21T14:52:22.811Z,26.18
2023-06-21T14:54:50.756Z,26.17
2023-06-21T14:57:17.971Z,26.17
2023-06-21T14:59:46.029Z,26.17
2023-06-21T15:02:13.127Z,26.16
2023-06-21T15:04:40.728Z,26.14
2023-06-21T15:07:08.739Z,26.13
2023-06-21T15:09:35.822Z,26.15
2023-06-21T15:12:02.634Z,26.16
2023-06-21T15:14:29.431Z,26.16
2023-06-21T15:16:57.380Z,26.16
2023-06-21T15:19:25.968Z,26.14
2023-06-21T15:21:53.536Z,26.15
2023-06-21T15:24:20.234Z,26.15
2023-06-21T15:26:47.278Z,26.16
2023-06-21T15:29:13.995Z,26.20
2023-06-21T15:31:42.175Z,26.25
2023-06-21T15:34:14.112Z,26.28
2023-06-21T15:36:42.481Z,26.29
2023-06-21T15:39:10.386Z,26.30
2023-06-21T15:41:38.224Z,26.31
2023-06-21T15:44:07.978Z,26.31
2023-06-21T15:46:34.863Z,26.30
2023-06-21T15:49:02.105Z,26.31
2023-06-21T15:51:29.119Z,26.31
2023-06-21T15:53:57.341Z,26.32
2023-06-21T15:56:26.438Z,26.31
2023-06-21T15:58:53.763Z,26.28
2023-06-21T16:01:21.716Z,26.25
2023-06-21T16:03:50.106Z,26.15
2023-06-21T16:06:17.920Z,26.04
2023-06-21T16:08:44.621Z,25.91
2023-06-21T16:11:12.897Z,25.79
2023-06-21T16:13:47.533Z,25.67
2023-06-21T16:16:16.227Z,25.58
2023-06-21T16:18:45.542Z,25.52
2023-06-21T16:21:13.391Z,25.42
2023-06-21T16:23:40.063Z,25.26
2023-06-21T16:26:06.977Z,25.21
2023-06-21T16:28:35.512Z,25.25
2023-06-21T16:31:02.361Z,25.33
2023-06-21T16:33:29.081Z,25.42
2023-06-21T16:35:55.780Z,25.47
2023-06-21T16:38:23.564Z,25.46
2023-06-21T16:40:50.546Z,25.44
2023-06-21T16:43:17.925Z,25.44
2023-06-21T16:45:45.477Z,25.48
2023-06-21T16:48:12.339Z,25.50
2023-06-21T16:50:39.187Z,25.48
2023-06-21T16:53:05.866Z,25.46
2023-06-21T16:55:32.817Z,25.44
2023-06-21T16:58:00.219Z,25.42
2023-06-21T17:00:28.426Z,25.37
2023-06-21T17:02:56.707Z,25.32
2023-06-21T17:05:23.877Z,25.29
2023-06-21T17:07:51.673Z,25.27
2023-06-21T17:10:19.107Z,25.26
2023-06-21T17:12:46.475Z,25.21
2023-06-21T17:15:14.110Z,25.16
2023-06-21T17:17:42.210Z,25.10
2023-06-21T17:20:09.824Z,25.03
2023-06-21T17:22:37.015Z,24.97
2023-06-21T17:25:04.102Z,24.90
2023-06-21T17:27:31.043Z,24.82
2023-06-21T17:29:57.860Z,24.75
2023-06-21T17:32:25.065Z,24.68
2023-06-21T17:34:51.730Z,24.59
2023-06-21T17:37:18.346Z,24.49
2023-06-21T17:39:45.081Z,24.37
2023-06-21T17:42:11.765Z,24.28
2023-06-21T17:44:38.462Z,24.21
2023-06-21T17:47:05.498Z,24.16
2023-06-21T17:49:32.105Z,24.16
2023-06-21T17:51:58.764Z,24.17
2023-06-21T17:54:25.364Z,24.20
2023-06-21T17:56:52.014Z,24.23
2023-06-21T17:59:19.017Z,24.25
2023-06-21T18:01:46.541Z,24.25
2023-06-21T18:04:13.479Z,24.23
2023-06-21T18:06:40.400Z,24.22
2023-06-21T18:09:06.975Z,24.22
2023-06-21T18:11:33.551Z,24.20
2023-06-21T18:14:00.538Z,24.16
2023-06-21T18:16:29.862Z,24.14
2023-06-21T18:18:57.535Z,24.12
2023-06-21T18:21:24.282Z,24.09
2023-06-21T18:23:50.960Z,24.05
2023-06-21T18:26:17.751Z,24.03
2023-06-21T18:28:44.381Z,24.02
2023-06-21T18:31:11.384Z,24.01
2023-06-21T18:33:37.944Z,23.99
2023-06-21T18:36:04.759Z,23.98
2023-06-21T18:38:32.646Z,23.95
2023-06-21T18:40:59.777Z,23.93
2023-06-21T18:43:26.444Z,23.92
2023-06-21T18:45:53.077Z,23.90
2023-06-21T18:48:19.715Z,23.87
2023-06-21T18:50:46.428Z,23.82
2023-06-21T18:53:13.629Z,23.76
2023-06-21T18:55:40.356Z,23.70
2023-06-21T18:58:07.348Z,23.63
2023-06-21T19:00:34.039Z,23.57
2023-06-21T19:03:00.877Z,23.53
2023-06-21T19:05:27.792Z,23.49
2023-06-21T19:07:54.567Z,23.44
2023-06-21T19:10:21.270Z,23.39
2023-06-21T19:12:47.802Z,23.36
2023-06-21T19:15:15.725Z,23.33
2023-06-21T19:17:44.888Z,23.30
2023-06-21T19:20:13.069Z,23.27
2023-06-21T19:22:41.492Z,23.23
2023-06-21T19:25:09.347Z,23.20
2023-06-21T19:27:35.976Z,23.17
2023-06-21T19:30:06.060Z,23.15
2023-06-21T19:32:32.758Z,23.14
2023-06-21T19:34:59.573Z,23.15
2023-06-21T19:37:26.612Z,23.14
2023-06-21T19:39:53.227Z,23.15
2023-06-21T19:42:21.969Z,23.13
2023-06-21T19:44:48.838Z,23.12
2023-06-21T19:47:15.810Z,23.09
2023-06-21T19:49:46.537Z,23.04
2023-06-21T19:52:17.085Z,23.03
2023-06-21T19:54:43.685Z,23.01
2023-06-21T19:57:10.212Z,22.98
2023-06-21T19:59:36.849Z,22.95
2023-06-21T20:02:03.671Z,22.90
2023-06-21T20:04:30.410Z,22.85
2023-06-21T20:06:57.035Z,22.82
2023-06-21T20:09:23.637Z,22.79
2023-06-21T20:11:50.308Z,22.75
2023-06-21T20:14:17.545Z,22.72
2023-06-21T20:16:44.439Z,22.68
2023-06-21T20:19:11.457Z,22.66
2023-06-21T20:21:38.217Z,22.64
2023-06-21T20:24:05.112Z,22.64
2023-06-21T20:26:31.829Z,22.66
2023-06-21T20:28:58.416Z,22.67
2023-06-21T20:31:25.143Z,22.66
2023-06-21T20:33:51.951Z,22.63
2023-06-21T20:36:22.791Z,22.60
2023-06-21T20:38:50.558Z,22.57
2023-06-21T20:41:17.906Z,22.49
2023-06-21T20:43:44.922Z,22.39
2023-06-21T20:46:12.955Z,22.32
2023-06-21T20:48:39.821Z,22.29
2023-06-21T20:51:06.969Z,22.25
2023-06-21T20:53:33.820Z,22.22
2023-06-21T20:56:02.274Z,22.20
2023-06-21T20:58:30.278Z,22.19
2023-06-21T21:00:58.114Z,22.18
2023-06-21T21:03:24.861Z,22.18
2023-06-21T21:05:51.740Z,22.18
2023-06-21T21:08:19.336Z,22.19
2023-06-21T21:10:46.671Z,22.19
2023-06-21T21:13:13.927Z,22.19
2023-06-21T21:15:40.639Z,22.20
2023-06-21T21:18:07.369Z,22.21
2023-06-21T21:20:34.681Z,22.21
2023-06-21T21:23:01.383Z,22.23
2023-06-21T21:25:28.915Z,22.22
2023-06-21T21:27:55.867Z,22.22
2023-06-21T21:30:22.932Z,22.21
2023-06-21T21:32:49.913Z,22.16
2023-06-21T21:35:17.316Z,22.13
2023-06-21T21:37:44.581Z,22.13
2023-06-21T21:40:13.386Z,22.09
2023-06-21T21:42:40.293Z,22.01
2023-06-21T21:45:07.993Z,21.99
2023-06-21T21:47:35.271Z,21.99
2023-06-21T21:50:02.736Z,21.98
2023-06-21T21:52:29.564Z,21.98
2023-06-21T21:54:57.428Z,21.98
2023-06-21T21:57:25.275Z,22.01
2023-06-21T21:59:51.917Z,22.00
2023-06-21T22:02:18.578Z,22.01
2023-06-21T22:04:47.965Z,22.02
2023-06-21T22:07:15.091Z,22.02
2023-06-21T22:09:41.831Z,22.02
2023-06-21T22:12:11.610Z,22.01
2023-06-21T22:14:38.384Z,22.00
2023-06-21T22:17:09.067Z,21.97
2023-06-21T22:19:35.995Z,21.95
2023-06-21T22:22:03.253Z,21.92
2023-06-21T22:24:30.610Z,21.89
2023-06-21T22:26:57.401Z,21.86
2023-06-21T22:29:24.768Z,21.80
2023-06-21T22:31:51.688Z,21.76
2023-06-21T22:34:25.162Z,21.72
2023-06-21T22:36:52.590Z,21.71
2023-06-21T22:39:21.076Z,21.74
2023-06-21T22:41:47.807Z,21.75
2023-06-21T22:44:14.355Z,21.76
2023-06-21T22:46:42.632Z,21.76
2023-06-21T22:49:09.296Z,21.76
2023-06-21T22:51:37.904Z,21.75
2023-06-21T22:54:05.549Z,21.74
2023-06-21T22:56:32.820Z,21.71
2023-06-21T22:58:59.458Z,21.69
2023-06-21T23:01:26.203Z,21.64
2023-06-21T23:03:54.577Z,21.62
2023-06-21T23:06:22.730Z,21.62
2023-06-21T23:08:52.126Z,21.63
2023-06-21T23:11:26.915Z,21.65
2023-06-21T23:13:58.584Z,21.67
2023-06-21T23:16:26.942Z,21.69
2023-06-21T23:18:57.528Z,21.71
2023-06-21T23:21:31.050Z,21.71
2023-06-21T23:24:05.239Z,21.71
2023-06-21T23:26:31.968Z,21.69
2023-06-21T23:29:00.538Z,21.66
2023-06-21T23:31:34.131Z,21.60
2023-06-21T23:34:05.736Z,21.56
2023-06-21T23:36:34.475Z,21.54
2023-06-21T23:39:01.752Z,21.52
2023-06-21T23:41:32.558Z,21.51
2023-06-21T23:44:00.227Z,21.50
2023-06-21T23:46:31.386Z,21.48
2023-06-21T23:48:59.840Z,21.43
2023-06-21T23:51:28.346Z,21.34
2023-06-21T23:53:54.959Z,21.23
2023-06-21T23:56:24.987Z,21.15
2023-06-21T23:58:53.509Z,21.06
